Nearby METAR Reports

 

EGTE - Exeter Airport, United Kingdom
Distance from station: S 19km
Updated: 27/02/2020 22:50
Clear
Clear
 Wind from SSE
Wind: SSE 7 km/h
Temperature: 2°C
Wind Chill: 0°C
Dew Point: 1°C
Humidity: 93%
Barometer: 1015 hPa
Summary: Clear
Visibility: greater than 10 km
2020/02/27 22:50 EGTE 272250Z 16004KT CAVOK 02/01 Q1015
EGDY - Yeovilton (navy), United Kingdom
Distance from station: ENE 55km
Updated: 27/02/2020 22:50
Clear
Clear
 Wind from S
Wind: S 7 km/h
Temperature: 2°C
Wind Chill: 0°C
Dew Point: -1°C
Humidity: 81%
Barometer: 1015 hPa
Summary: Clear
Visibility: greater than 10 km
2020/02/27 22:50 EGDY 272250Z 19004KT CAVOK 02/M01 Q1015 BLU
 
EGFF - Cardiff-Wales Ar, United Kingdom
Distance from station: N 56km
Updated: 27/02/2020 22:50
Clear
Clear
 Wind from WSW
Wind: WSW 7 km/h
Temperature: 4°C
Wind Chill: 2°C
Dew Point: 1°C
Humidity: 81%
Barometer: 1014 hPa
Clouds: Clear
Visibility: 10 km
2020/02/27 22:50 EGFF 272250Z AUTO 25004KT 9999 NCD 04/01 Q1014
EGDX - St Athan Raf, United Kingdom
Distance from station: N 58km
Updated: 01/04/2019 13:50
NOT Current
Clear
Clear
 Wind from E
Wind: E 15 km/h
Temperature: 11°C
Dew Point: 5°C
Humidity: 67%
Barometer: 1019 hPa
Clouds: Clear
Visibility: 10 km
2019/04/01 12:50 EGDX 011250Z AUTO 10008KT 9999 NCD 11/05 Q1019
 
EGGD - Bristol/Lulsgate, United Kingdom
Distance from station: NE 71km
Updated: 27/02/2020 22:50
Clear
Clear
 Wind from SSW
Wind: SSW 7 km/h
Temperature: 2°C
Wind Chill: 0°C
Dew Point: 0°C
Humidity: 87%
Barometer: 1014 hPa
Clouds: Clear
Visibility: 10 km
2020/02/27 22:50 EGGD 272250Z AUTO 20004KT 9999 NCD 02/M00 Q1014